Time;durP1;ratioP1;P1;durP2;ratioP2;P2;SDS_P1;SDS_P2;PMS_P1;PMS_P2;Temp;Humidity;BMP_temperature;BMP_pressure;BME280_temperature;BME280_humidity;BME280_pressure;Samples;Min_cycle;Max_cycle;Signal;HPM_P1;HPM_P2
2021/07/10 00:02:07;;;;;;;;;12.25;10.75;;;;;21.58;100.00;101652.16;5021566;28;45420;-79
2021/07/10 00:04:33;;;;;;;;;11.25;10.00;;;;;21.55;100.00;101645.19;5020516;28;46058;-80
2021/07/10 00:06:58;;;;;;;;;11.75;11.25;;;;;21.56;100.00;101649.56;5029779;28;45486;-80
2021/07/10 00:09:24;;;;;;;;;14.00;12.25;;;;;21.56;100.00;101659.31;5025090;28;45321;-79
2021/07/10 00:11:50;;;;;;;;;13.50;12.75;;;;;21.59;100.00;101668.03;5026292;28;45333;-80
2021/07/10 00:14:16;;;;;;;;;12.00;11.00;;;;;21.58;100.00;101671.59;5039401;28;45542;-80
2021/07/10 00:16:41;;;;;;;;;13.25;13.25;;;;;21.50;100.00;101657.81;5038723;28;45424;-80
2021/07/10 00:19:07;;;;;;;;;14.75;14.25;;;;;21.53;100.00;101655.03;5039162;28;45316;-79
2021/07/10 00:21:32;;;;;;;;;14.00;12.50;;;;;21.48;100.00;101640.19;5039398;28;45435;-79
2021/07/10 00:23:57;;;;;;;;;14.00;13.75;;;;;21.52;100.00;101653.28;5038991;28;46310;-80
2021/07/10 00:26:23;;;;;;;;;14.75;14.25;;;;;21.49;100.00;101652.53;5025016;28;45270;-79
2021/07/10 00:28:48;;;;;;;;;14.00;13.50;;;;;21.46;100.00;101642.06;5047229;28;45466;-80
2021/07/10 00:31:13;;;;;;;;;17.25;15.75;;;;;21.43;100.00;101640.41;5027462;28;45304;-81
2021/07/10 00:33:39;;;;;;;;;12.25;12.25;;;;;21.45;100.00;101638.53;5036956;28;45470;-80
2021/07/10 00:36:04;;;;;;;;;17.00;14.75;;;;;21.39;100.00;101630.84;5039021;28;45346;-80
2021/07/10 00:38:30;;;;;;;;;16.50;16.00;;;;;21.37;100.00;101627.41;5035960;28;45486;-80
2021/07/10 00:40:55;;;;;;;;;16.25;15.25;;;;;21.40;100.00;101629.91;5030989;28;45465;-81
2021/07/10 00:43:21;;;;;;;;;13.75;13.00;;;;;21.30;100.00;101610.88;5034201;28;45614;-80
2021/07/10 00:45:47;;;;;;;;;15.00;13.00;;;;;21.34;100.00;101616.91;5026109;28;45442;-80
2021/07/10 00:48:13;;;;;;;;;16.25;15.00;;;;;21.36;100.00;101626.53;5026897;28;45407;-80
2021/07/10 00:50:38;;;;;;;;;15.25;15.25;;;;;21.27;100.00;101610.13;5037665;28;45468;-79
2021/07/10 00:53:04;;;;;;;;;21.25;16.25;;;;;21.36;100.00;101618.56;5038382;28;46266;-80
2021/07/10 00:55:29;;;;;;;;;15.75;14.75;;;;;21.35;100.00;101613.31;5035380;28;45695;-80
2021/07/10 00:57:55;;;;;;;;;16.00;14.75;;;;;21.26;100.00;101587.16;5044469;28;45578;-80
2021/07/10 01:00:23;;;;;;;;;13.50;13.25;;;;;21.31;100.00;101598.47;5051416;28;45477;-80
2021/07/10 01:02:52;;;;;;;;;18.00;14.00;;;;;21.29;100.00;101587.91;5049794;28;46512;-80
2021/07/10 01:05:26;;;;;;;;;12.50;12.25;;;;;21.38;100.00;101602.56;5052984;28;45408;-79
2021/07/10 01:07:52;;;;;;;;;15.00;13.75;;;;;21.38;100.00;101598.09;5058173;28;45294;-80
2021/07/10 01:10:18;;;;;;;;;18.50;16.00;;;;;21.37;100.00;101596.38;5058563;28;45475;-79
2021/07/10 01:12:46;;;;;;;;;13.00;13.00;;;;;21.32;100.00;101581.59;5057767;28;45901;-80
2021/07/10 01:15:13;;;;;;;;;12.50;11.50;;;;;21.34;100.00;101580.59;5058013;28;45359;-80
2021/07/10 01:17:39;;;;;;;;;14.00;13.00;;;;;21.23;100.00;101568.69;5058769;28;45362;-80
2021/07/10 01:20:10;;;;;;;;;15.00;14.75;;;;;21.24;100.00;101576.59;5040580;28;45469;-81
2021/07/10 01:22:37;;;;;;;;;16.25;14.25;;;;;21.23;100.00;101568.69;5056904;28;45675;-82
2021/07/10 01:25:03;;;;;;;;;14.00;12.75;;;;;21.30;100.00;101567.53;5026272;28;45652;-81
2021/07/10 01:27:28;;;;;;;;;18.50;16.25;;;;;21.25;100.00;101559.75;5058476;28;45424;-81
2021/07/10 01:29:56;;;;;;;;;14.75;12.75;;;;;21.23;100.00;101550.94;5058276;28;45419;-80
2021/07/10 01:32:21;;;;;;;;;16.50;15.75;;;;;21.24;100.00;101551.84;5057550;28;45599;-81
2021/07/10 01:34:48;;;;;;;;;15.00;13.50;;;;;21.24;100.00;101555.34;5058277;28;45382;-81
2021/07/10 01:37:17;;;;;;;;;16.75;15.00;;;;;21.23;100.00;101542.13;5058182;28;45208;-80
2021/07/10 01:39:43;;;;;;;;;18.75;15.75;;;;;21.26;100.00;101542.88;5057998;28;45373;-80
2021/07/10 01:42:10;;;;;;;;;15.75;14.00;;;;;21.22;100.00;101532.44;5057207;28;45538;-79
2021/07/10 01:44:37;;;;;;;;;15.25;15.25;;;;;21.24;100.00;101533.25;5057964;28;45412;-79
2021/07/10 01:47:03;;;;;;;;;19.00;16.50;;;;;21.21;100.00;101515.63;5057910;28;45521;-78
2021/07/10 01:49:28;;;;;;;;;16.25;16.25;;;;;21.22;100.00;101522.66;5058617;28;45374;-79
2021/07/10 01:51:54;;;;;;;;;19.50;19.00;;;;;21.23;100.00;101523.53;5027027;28;45361;-78
2021/07/10 01:54:19;;;;;;;;;17.50;16.00;;;;;21.22;100.00;101521.81;5052785;28;45184;-78
2021/07/10 01:56:45;;;;;;;;;19.00;17.00;;;;;21.13;100.00;101504.50;5058123;28;45346;-78
2021/07/10 01:59:10;;;;;;;;;16.00;15.00;;;;;21.22;100.00;101519.16;5058360;28;45306;-78
2021/07/10 02:01:35;;;;;;;;;16.50;15.50;;;;;21.19;100.00;101511.31;5058062;28;45425;-78
2021/07/10 02:04:02;;;;;;;;;17.00;15.75;;;;;21.22;100.00;101505.88;5056847;28;45368;-78
2021/07/10 02:06:27;;;;;;;;;13.25;12.75;;;;;21.20;100.00;101513.91;5053245;28;45568;-77
2021/07/10 02:08:54;;;;;;;;;16.00;15.00;;;;;21.16;100.00;101493.75;5058103;28;45559;-78
2021/07/10 02:11:19;;;;;;;;;14.25;13.75;;;;;21.20;100.00;101511.25;5057438;28;45684;-78
2021/07/10 02:13:45;;;;;;;;;18.75;16.75;;;;;21.20;100.00;101505.06;5057517;28;45829;-79
2021/07/10 02:16:11;;;;;;;;;17.75;15.50;;;;;21.20;100.00;101502.41;5057087;28;45470;-79
2021/07/10 02:18:37;;;;;;;;;17.00;16.00;;;;;21.13;100.00;101483.25;5057863;28;45431;-80
2021/07/10 02:21:03;;;;;;;;;18.00;16.00;;;;;21.25;100.00;101509.25;5057367;28;46021;-80
2021/07/10 02:23:29;;;;;;;;;18.75;16.50;;;;;21.21;100.00;101498.81;5057074;28;45329;-79
2021/07/10 02:25:54;;;;;;;;;19.00;17.75;;;;;21.16;100.00;101484.91;5056743;28;45535;-80
2021/07/10 02:28:20;;;;;;;;;17.00;16.25;;;;;21.10;100.00;101481.63;5057392;28;45392;-80
2021/07/10 02:30:45;;;;;;;;;16.75;16.25;;;;;21.20;100.00;101500.63;5047655;28;46638;-79
2021/07/10 02:33:11;;;;;;;;;17.50;16.50;;;;;21.12;100.00;101483.34;5052869;28;45471;-79
2021/07/10 02:35:36;;;;;;;;;17.75;17.50;;;;;21.16;100.00;101491.09;5057208;28;45504;-80
2021/07/10 02:38:02;;;;;;;;;17.50;16.00;;;;;21.16;100.00;101485.78;5057420;28;45448;-78
2021/07/10 02:40:28;;;;;;;;;21.00;17.75;;;;;21.16;100.00;101483.13;5056791;28;45381;-79
2021/07/10 02:42:54;;;;;;;;;18.50;17.25;;;;;21.08;100.00;101467.53;5057456;28;45582;-79
2021/07/10 02:45:20;;;;;;;;;19.75;18.50;;;;;21.06;100.00;101464.09;5057118;28;45414;-79
2021/07/10 02:47:46;;;;;;;;;19.00;18.00;;;;;21.12;100.00;101483.34;5056203;28;45543;-79
2021/07/10 02:50:15;;;;;;;;;19.25;16.50;;;;;21.09;100.00;101471.94;5038624;28;47364;-79
2021/07/10 02:52:41;;;;;;;;;20.00;18.00;;;;;21.09;100.00;101469.28;5056895;28;45485;-80
2021/07/10 02:55:08;;;;;;;;;17.50;17.00;;;;;21.15;100.00;101472.56;5056595;28;45335;-80
2021/07/10 02:57:33;;;;;;;;;17.25;15.75;;;;;21.15;100.00;101467.25;5056830;28;45448;-81
2021/07/10 03:00:00;;;;;;;;;19.25;19.25;;;;;21.11;100.00;101461.22;5047111;28;45456;-79
2021/07/10 03:02:26;;;;;;;;;18.75;17.50;;;;;21.08;100.00;101454.28;5046875;28;45472;-80
2021/07/10 03:04:51;;;;;;;;;19.25;17.75;;;;;21.10;100.00;101457.72;5056800;28;45471;-80
2021/07/10 03:07:16;;;;;;;;;18.00;17.00;;;;;21.03;100.00;101453.59;5056887;28;45420;-80
2021/07/10 03:09:42;;;;;;;;;17.25;16.50;;;;;20.95;100.00;101436.31;5055534;28;46340;-79
2021/07/10 03:12:08;;;;;;;;;18.50;17.75;;;;;21.03;100.00;101455.38;5046441;28;45478;-79
2021/07/10 03:14:33;;;;;;;;;17.25;16.75;;;;;20.91;100.00;101430.28;5052956;28;45313;-79
2021/07/10 03:16:58;;;;;;;;;17.25;15.75;;;;;20.93;100.00;101436.38;5056945;28;45312;-79
2021/07/10 03:19:24;;;;;;;;;17.25;14.00;;;;;20.90;100.00;101436.53;5055960;28;45492;-78
2021/07/10 03:21:49;;;;;;;;;19.00;16.75;;;;;20.86;100.00;101423.47;5029813;28;46027;-79
2021/07/10 03:24:15;;;;;;;;;18.00;14.25;;;;;20.96;100.00;101443.34;5048730;28;45884;-80
2021/07/10 03:26:40;;;;;;;;;17.50;15.50;;;;;20.88;100.00;101430.44;5056247;28;45457;-80
2021/07/10 03:29:05;;;;;;;;;18.00;17.00;;;;;20.88;100.00;101438.41;5055288;28;45465;-79
2021/07/10 03:31:31;;;;;;;;;11.50;11.00;;;;;20.89;100.00;101436.59;5053523;28;45330;-79
2021/07/10 03:33:57;;;;;;;;;11.75;10.25;;;;;20.86;100.00;101440.25;5056474;28;45448;-79
2021/07/10 03:36:25;;;;;;;;;9.25;9.25;;;;;20.85;100.00;101438.53;5056444;28;45450;-80
2021/07/10 03:38:51;;;;;;;;;9.50;9.50;;;;;20.83;100.00;101439.53;5049088;28;46426;-79
2021/07/10 03:41:17;;;;;;;;;13.50;10.50;;;;;20.82;100.00;101438.69;5048230;28;45555;-79
2021/07/10 03:43:43;;;;;;;;;12.50;10.75;;;;;20.77;100.00;101425.59;5048612;28;45551;-79
2021/07/10 03:46:08;;;;;;;;;12.00;11.00;;;;;20.76;100.00;101423.00;5056317;28;45896;-79
2021/07/10 03:48:34;;;;;;;;;12.00;12.00;;;;;20.84;100.00;101428.00;5035615;28;48007;-79
2021/07/10 03:51:00;;;;;;;;;18.00;17.75;;;;;20.84;100.00;101428.00;5032080;28;45501;-79
2021/07/10 03:53:26;;;;;;;;;15.00;14.75;;;;;20.75;100.00;101429.25;5037940;28;45350;-80
2021/07/10 03:55:51;;;;;;;;;13.00;12.00;;;;;20.78;100.00;101439.72;5055713;28;45348;-81
2021/07/10 03:58:17;;;;;;;;;12.25;10.75;;;;;20.75;100.00;101445.19;5055804;28;45706;-80
2021/07/10 04:00:42;;;;;;;;;14.00;13.50;;;;;20.76;100.00;101449.56;5037649;28;45834;-80
2021/07/10 04:03:08;;;;;;;;;14.00;11.00;;;;;20.74;100.00;101454.06;5055769;28;45314;-80
2021/07/10 04:05:34;;;;;;;;;10.75;10.75;;;;;20.70;100.00;101455.16;5055898;28;45500;-80
2021/07/10 04:08:00;;;;;;;;;14.00;11.75;;;;;20.57;100.00;101436.25;5037774;28;47003;-79
2021/07/10 04:10:26;;;;;;;;;12.25;12.00;;;;;20.53;100.00;101450.59;5056166;28;45484;-79
2021/07/10 04:12:51;;;;;;;;;15.50;12.75;;;;;20.54;100.00;101452.31;5050390;28;45384;-79
2021/07/10 04:15:18;;;;;;;;;13.25;13.25;;;;;20.47;100.00;101456.16;5056007;28;45369;-80
2021/07/10 04:17:44;;;;;;;;;13.50;13.25;;;;;20.38;100.00;101443.28;5055815;28;45579;-79
2021/07/10 04:20:11;;;;;;;;;13.50;11.00;;;;;20.36;100.00;101448.63;5055897;28;45470;-79
2021/07/10 04:22:37;;;;;;;;;13.25;11.75;;;;;20.27;100.00;101434.94;5050134;28;45309;-79
2021/07/10 04:25:06;;;;;;;;;13.50;12.00;;;;;20.35;100.00;101446.06;5050237;28;45492;-80
2021/07/10 04:27:33;;;;;;;;;13.75;12.00;;;;;20.33;100.00;101448.78;5055302;28;46178;-80
2021/07/10 04:29:59;;;;;;;;;11.75;11.25;;;;;20.24;100.00;101437.72;5055637;28;45295;-80
2021/07/10 04:32:25;;;;;;;;;11.50;11.00;;;;;20.27;100.00;101438.44;5055614;28;45313;-80
2021/07/10 04:34:51;;;;;;;;;13.50;12.75;;;;;20.19;100.00;101430.81;5052919;28;45159;-79
2021/07/10 04:37:16;;;;;;;;;10.00;9.75;;;;;20.26;100.00;101441.16;5045889;28;46274;-80
2021/07/10 04:39:42;;;;;;;;;9.00;9.00;;;;;20.28;100.00;101439.31;5055499;28;45280;-79
2021/07/10 04:42:08;;;;;;;;;12.75;12.50;;;;;20.33;100.00;101432.00;5052305;28;45412;-79
2021/07/10 04:44:35;;;;;;;;;11.00;11.00;;;;;20.32;100.00;101432.94;5058692;28;45600;-78
2021/07/10 04:47:01;;;;;;;;;13.25;12.50;;;;;20.36;100.00;101435.38;5055193;28;45702;-78
2021/07/10 04:49:26;;;;;;;;;12.00;11.00;;;;;20.42;100.00;101439.59;5056496;28;45450;-80
2021/07/10 04:51:52;;;;;;;;;11.00;9.75;;;;;20.45;100.00;101450.06;5051900;28;45414;-80
2021/07/10 04:54:17;;;;;;;;;12.25;11.25;;;;;20.38;100.00;101451.25;5049064;28;45405;-80
2021/07/10 04:56:43;;;;;;;;;10.75;9.50;;;;;20.33;100.00;101451.41;5052105;28;45667;-79
2021/07/10 04:59:08;;;;;;;;;12.25;11.75;;;;;20.28;100.00;101449.91;5053187;28;45361;-80
2021/07/10 05:01:33;;;;;;;;;13.75;12.50;;;;;20.23;100.00;101449.25;5058436;28;45431;-80
2021/07/10 05:03:59;;;;;;;;;11.25;11.00;;;;;20.27;100.00;101459.66;5053392;28;45366;-80
2021/07/10 05:06:25;;;;;;;;;11.00;11.00;;;;;20.23;100.00;101452.75;5052801;28;46091;-79
2021/07/10 05:08:50;;;;;;;;;14.00;11.00;;;;;20.27;100.00;101449.03;5047100;28;45440;-80
2021/07/10 05:11:16;;;;;;;;;12.25;12.25;;;;;20.23;100.00;101452.75;5055876;28;45239;-80
2021/07/10 05:13:42;;;;;;;;;13.00;12.00;;;;;20.19;100.00;101451.19;5058717;28;45481;-80
2021/07/10 05:16:07;;;;;;;;;11.00;11.00;;;;;20.21;100.00;101448.47;5058438;28;46488;-80
2021/07/10 05:18:32;;;;;;;;;11.00;9.25;;;;;20.24;100.00;101462.44;5039913;28;45584;-79
2021/07/10 05:20:58;;;;;;;;;10.50;10.50;;;;;20.22;100.00;101452.84;5054986;28;45402;-79
2021/07/10 05:23:23;;;;;;;;;10.00;10.00;;;;;20.27;100.00;101458.78;5050788;28;45389;-79
2021/07/10 05:25:49;;;;;;;;;10.00;10.00;;;;;20.30;100.00;101451.56;5050589;28;46073;-79
2021/07/10 05:28:14;;;;;;;;;13.75;12.00;;;;;20.32;100.00;101449.69;5036446;28;45453;-79
2021/07/10 05:30:40;;;;;;;;;14.25;10.50;;;;;20.42;100.00;101456.38;5053531;28;45310;-78
2021/07/10 05:33:05;;;;;;;;;11.25;10.75;;;;;20.42;100.00;101444.91;5040166;28;45656;-80
2021/07/10 05:35:31;;;;;;;;;11.50;10.50;;;;;20.43;100.00;101449.28;5058031;28;46512;-79
2021/07/10 05:37:56;;;;;;;;;10.75;10.25;;;;;20.54;100.00;101459.41;5058132;28;45290;-79
2021/07/10 05:40:22;;;;;;;;;10.75;10.00;;;;;20.58;100.00;101447.72;5057578;28;45349;-78
2021/07/10 05:42:48;;;;;;;;;10.00;9.75;;;;;20.65;100.00;101451.84;5058161;28;45373;-80
2021/07/10 05:45:15;;;;;;;;;8.75;6.50;;;;;20.69;100.00;101442.81;5047425;28;46295;-80
2021/07/10 05:47:41;;;;;;;;;11.25;10.50;;;;;20.66;100.00;101432.34;5053399;28;45725;-80
2021/07/10 05:50:07;;;;;;;;;12.25;10.75;;;;;20.73;100.00;101439.94;5057599;28;45510;-80
2021/07/10 05:52:33;;;;;;;;;10.75;10.00;;;;;20.81;100.00;101436.94;5036336;28;45372;-80
2021/07/10 05:54:58;;;;;;;;;11.75;11.50;;;;;20.75;100.00;101419.50;5049890;28;46270;-80
2021/07/10 05:57:24;;;;;;;;;13.25;12.50;;;;;20.77;100.00;101427.41;5044982;28;45328;-79
2021/07/10 05:59:49;;;;;;;;;10.75;10.75;;;;;20.79;100.00;101437.00;5055273;28;45352;-80
2021/07/10 06:02:14;;;;;;;;;11.00;10.25;;;;;20.82;100.00;101432.47;5055836;28;45566;-79
2021/07/10 06:04:40;;;;;;;;;9.50;9.25;;;;;20.74;100.00;101416.91;5042719;28;45463;-79
2021/07/10 06:07:09;;;;;;;;;11.25;9.50;;;;;20.87;100.00;101436.69;5053658;28;45492;-79
2021/07/10 06:09:35;;;;;;;;;10.00;9.00;;;;;20.88;100.00;101430.44;5057962;28;45238;-79
2021/07/10 06:12:00;;;;;;;;;11.00;11.00;;;;;20.83;100.00;101413.88;5057934;28;45377;-80
2021/07/10 06:14:26;;;;;;;;;8.00;8.00;;;;;21.02;100.00;101422.66;5057433;28;45461;-80
2021/07/10 06:16:52;;;;;;;;;10.00;10.00;;;;;21.16;100.00;101424.69;5039621;28;45246;-81
2021/07/10 06:19:17;;;;;;;;;8.75;8.75;;;;;21.28;100.00;101421.50;5044301;28;45429;-80
2021/07/10 06:21:43;;;;;;;;;9.00;9.00;;;;;21.30;100.00;101402.81;5056063;28;45524;-79
2021/07/10 06:24:08;;;;;;;;;7.75;7.50;;;;;21.51;100.00;101428.34;5057387;28;45979;-78
2021/07/10 06:26:34;;;;;;;;;7.00;6.25;;;;;21.54;100.00;101428.19;5038838;28;45315;-80
2021/07/10 06:29:00;;;;;;;;;8.75;8.50;;;;;21.53;100.00;101431.78;5057559;28;45605;-80
2021/07/10 06:31:26;;;;;;;;;10.00;8.00;;;;;21.43;100.00;101425.19;5039222;28;45676;-81
2021/07/10 06:33:52;;;;;;;;;7.00;6.50;;;;;21.37;100.00;101412.22;5057457;28;46383;-80
2021/07/10 06:36:17;;;;;;;;;6.00;6.00;;;;;21.33;100.00;101419.47;5044116;28;45433;-80
2021/07/10 06:38:43;;;;;;;;;7.25;5.75;;;;;21.34;100.00;101409.72;5056370;28;45406;-82
2021/07/10 06:41:08;;;;;;;;;6.50;6.25;;;;;21.36;100.00;101415.81;5056736;28;45644;-80
2021/07/10 06:43:34;;;;;;;;;6.25;6.25;;;;;21.40;100.00;101418.22;5035344;28;48325;-80
2021/07/10 06:45:59;;;;;;;;;6.25;6.25;;;;;21.41;100.00;101411.13;5047872;28;45441;-78
2021/07/10 06:48:25;;;;;;;;;6.00;6.00;;;;;21.48;100.00;101412.53;5057089;28;45361;-80
2021/07/10 06:50:51;;;;;;;;;6.50;6.00;;;;;21.62;100.00;101419.84;5057048;28;45410;-79
2021/07/10 06:53:22;;;;;;;;;4.50;4.50;;;;;21.68;100.00;101417.72;5056893;28;45758;-79
2021/07/10 06:55:51;;;;;;;;;6.75;6.50;;;;;21.82;100.00;101410.88;5056505;28;45341;-80
2021/07/10 06:58:16;;;;;;;;;4.25;4.25;;;;;21.92;100.00;101404.13;5057037;28;45632;-78
2021/07/10 07:00:42;;;;;;;;;7.75;6.00;;;;;21.99;100.00;101405.56;5052872;28;45336;-79
2021/07/10 07:03:07;;;;;;;;;7.00;6.75;;;;;21.95;100.00;101396.00;5051923;28;46690;-79
2021/07/10 07:05:33;;;;;;;;;6.00;4.25;;;;;21.96;100.00;101397.75;5052201;28;45358;-79
2021/07/10 07:07:59;;;;;;;;;6.25;5.50;;;;;21.90;100.00;101412.19;5056828;28;45318;-79
2021/07/10 07:10:24;;;;;;;;;7.50;7.00;;;;;21.82;100.00;101400.25;5057338;28;45407;-79
2021/07/10 07:12:49;;;;;;;;;7.00;6.00;;;;;21.88;100.00;101407.91;5056384;28;45420;-80
2021/07/10 07:15:16;;;;;;;;;7.25;5.50;;;;;21.87;100.00;101398.19;5048857;28;45303;-80
2021/07/10 07:17:41;;;;;;;;;5.25;4.50;;;;;21.97;100.00;101410.13;5050830;28;45384;-78
2021/07/10 07:20:13;;;;;;;;;5.50;5.50;;;;;21.95;100.00;101394.22;5057002;28;45414;-79
2021/07/10 07:22:40;;;;;;;;;5.00;5.00;;;;;22.00;100.00;101399.31;5056795;28;45613;-78
2021/07/10 07:25:06;;;;;;;;;4.75;4.75;;;;;21.90;100.00;101392.72;5037096;28;45536;-78
2021/07/10 07:27:32;;;;;;;;;7.75;7.00;;;;;21.94;100.00;101397.81;5055965;28;45360;-77
2021/07/10 07:29:57;;;;;;;;;7.75;7.25;;;;;21.92;100.00;101390.84;5056901;28;45421;-81
2021/07/10 07:32:22;;;;;;;;;6.00;6.00;;;;;21.88;100.00;101378.66;5056732;28;46289;-81
2021/07/10 07:34:48;;;;;;;;;6.75;5.25;;;;;22.00;100.00;101384.22;5055426;28;45393;-79
2021/07/10 07:37:17;;;;;;;;;7.00;5.75;;;;;22.12;100.00;101379.22;5056896;28;45409;-80
2021/07/10 07:39:46;;;;;;;;;4.25;4.25;;;;;22.28;100.00;101383.66;5038569;28;45617;-79
2021/07/10 07:42:15;;;;;;;;;4.75;4.50;;;;;22.42;100.00;101385.59;5056018;28;45918;-80
2021/07/10 07:44:42;;;;;;;;;4.00;4.00;;;;;22.47;100.00;101385.34;5056179;28;45597;-80
2021/07/10 07:47:12;;;;;;;;;5.00;4.50;;;;;22.58;100.00;101383.81;5031778;28;45287;-78
2021/07/10 07:49:38;;;;;;;;;6.00;5.25;;;;;22.62;100.00;101381.84;5047351;28;45380;-77
2021/07/10 07:52:05;;;;;;;;;5.75;5.00;;;;;22.72;100.00;101383.06;5036893;28;47030;-78
2021/07/10 07:54:31;;;;;;;;;4.00;4.00;;;;;22.70;100.00;101373.47;5056362;28;45267;-78
2021/07/10 07:56:57;;;;;;;;;8.75;5.50;;;;;22.81;100.00;101376.38;5054972;28;45385;-78
2021/07/10 07:59:22;;;;;;;;;5.00;5.00;;;;;22.85;100.00;101373.47;5056073;28;45477;-78
2021/07/10 08:01:48;;;;;;;;;6.00;6.00;;;;;22.97;100.00;101385.28;5056052;28;45504;-78
2021/07/10 08:04:13;;;;;;;;;4.25;4.00;;;;;23.05;100.00;101384.84;5055919;28;45271;-78
2021/07/10 08:06:38;;;;;;;;;4.00;4.00;;;;;23.12;100.00;101371.09;5048786;28;45355;-77
2021/07/10 08:09:05;;;;;;;;;4.25;4.25;;;;;23.28;100.00;101372.88;5041901;28;45439;-79
2021/07/10 08:11:30;;;;;;;;;5.00;5.00;;;;;23.39;100.00;101384.66;5052185;28;45475;-79
2021/07/10 08:13:56;;;;;;;;;3.50;3.50;;;;;23.47;100.00;101377.06;5055629;28;45329;-80
2021/07/10 08:16:22;;;;;;;;;4.00;3.00;;;;;23.60;100.00;101376.41;5049848;28;45700;-80
2021/07/10 08:18:47;;;;;;;;;4.50;4.00;;;;;23.64;100.00;101378.78;5051442;28;45321;-79
2021/07/10 08:21:13;;;;;;;;;4.25;3.00;;;;;23.63;100.00;101371.75;5059404;28;46319;-77
2021/07/10 08:23:38;;;;;;;;;7.00;6.25;;;;;23.64;100.00;101372.59;5058853;28;45516;-78
2021/07/10 08:26:04;;;;;;;;;14.00;13.00;;;;;23.58;100.00;101364.97;5059194;28;45505;-77
2021/07/10 08:28:30;;;;;;;;;5.25;5.25;;;;;23.65;100.00;101363.66;5059597;28;45280;-78
2021/07/10 08:30:55;;;;;;;;;3.00;3.00;;;;;23.71;100.00;101368.63;5058700;28;45393;-78
2021/07/10 08:33:20;;;;;;;;;3.00;3.00;;;;;23.73;100.00;101369.38;5058402;28;45246;-78
2021/07/10 08:35:46;;;;;;;;;3.00;3.00;;;;;23.74;100.00;101365.75;5058823;28;45325;-78
2021/07/10 08:38:11;;;;;;;;;3.50;3.00;;;;;23.63;100.00;101352.22;5059100;28;45333;-78
2021/07/10 08:40:37;;;;;;;;;3.75;3.75;;;;;23.64;100.00;101353.94;5058770;28;46308;-78
2021/07/10 08:43:02;;;;;;;;;5.25;5.00;;;;;23.58;100.00;101357.84;5050426;28;45422;-77
2021/07/10 08:45:33;;;;;;;;;5.00;4.00;;;;;23.57;100.00;101353.44;5053919;28;45448;-78
2021/07/10 08:47:58;;;;;;;;;4.75;3.00;;;;;23.59;100.00;101356.03;5047746;28;45455;-77
2021/07/10 08:50:24;;;;;;;;;4.25;3.75;;;;;23.59;100.00;101362.22;5058817;28;46412;-77
2021/07/10 08:52:51;;;;;;;;;4.00;4.00;;;;;23.52;100.00;101364.31;5059053;28;45431;-78
2021/07/10 08:55:16;;;;;;;;;5.00;3.75;;;;;23.50;100.00;101368.88;5039959;28;45502;-79
2021/07/10 08:57:42;;;;;;;;;4.00;4.00;;;;;23.53;100.00;101373.19;5058322;28;45425;-77
2021/07/10 09:00:14;;;;;;;;;4.00;4.00;;;;;23.38;100.00;101366.09;5058269;28;45383;-76
2021/07/10 09:02:42;;;;;;;;;4.25;4.00;;;;;23.40;100.00;101383.72;5033996;28;45383;-76
2021/07/10 09:05:09;;;;;;;;;5.00;5.00;;;;;23.34;100.00;101383.22;5040101;28;45391;-78
2021/07/10 09:08:13;;;;;;;;;3.00;3.00;;;;;23.28;100.00;101387.06;5058430;28;45310;-79
2021/07/10 09:10:41;;;;;;;;;3.50;3.50;;;;;23.23;100.00;101383.81;5058221;28;45355;-78
2021/07/10 09:13:07;;;;;;;;;5.00;4.50;;;;;23.18;100.00;101380.56;5040047;28;45513;-79
2021/07/10 09:15:32;;;;;;;;;4.00;4.00;;;;;23.11;100.00;101392.50;5040435;28;45464;-78
2021/07/10 09:17:58;;;;;;;;;5.50;4.00;;;;;22.94;100.00;101385.44;5044565;28;45685;-80
2021/07/10 09:20:27;;;;;;;;;4.00;4.00;;;;;22.66;100.00;101371.91;5058038;28;45712;-81
2021/07/10 09:22:54;;;;;;;;;2.50;2.50;;;;;22.62;100.00;101389.81;5058649;28;45486;-79
2021/07/10 09:25:24;;;;;;;;;3.00;3.00;;;;;22.53;100.00;101385.00;5052027;28;45467;-79
2021/07/10 09:27:51;;;;;;;;;3.00;3.00;;;;;22.45;100.00;101388.09;5037662;28;45370;-79
2021/07/10 09:30:32;;;;;;;;;2.25;2.25;;;;;22.20;100.00;101361.94;5052920;28;46753;-79
2021/07/10 09:33:17;;;;;;;;;3.00;3.00;;;;;22.25;100.00;101377.66;5052536;28;45327;-80
2021/07/10 09:35:49;;;;;;;;;2.50;2.00;;;;;22.22;100.00;101368.03;5046960;28;45388;-78
2021/07/10 09:38:26;;;;;;;;;2.50;2.50;;;;;22.22;100.00;101377.81;5040175;28;45428;-79
2021/07/10 09:41:09;;;;;;;;;2.75;2.75;;;;;22.22;100.00;101372.50;5058401;28;45715;-79
2021/07/10 09:43:37;;;;;;;;;3.75;3.75;;;;;22.20;100.00;101367.25;5057470;28;45510;-79
2021/07/10 09:46:06;;;;;;;;;3.75;2.75;;;;;22.24;100.00;101360.81;5048393;28;45565;-77
2021/07/10 09:48:35;;;;;;;;;2.50;2.50;;;;;22.23;100.00;101348.47;5045177;28;45850;-77
2021/07/10 09:51:20;;;;;;;;;3.75;3.75;;;;;22.46;100.00;101357.03;5049969;28;45547;-79
2021/07/10 09:53:58;;;;;;;;;4.50;4.00;;;;;22.66;100.00;101364.78;5037032;28;45406;-78
2021/07/10 09:56:24;;;;;;;;;2.00;2.00;;;;;22.82;100.00;101352.34;5047538;28;45451;-80
2021/07/10 09:58:50;;;;;;;;;3.00;3.00;;;;;22.93;100.00;101354.44;5055829;28;45433;-79
2021/07/10 10:01:34;;;;;;;;;4.25;4.00;;;;;23.04;100.00;101353.81;5041465;28;45406;-80
2021/07/10 10:04:01;;;;;;;;;5.00;4.00;;;;;23.12;100.00;101348.94;5050323;28;45456;-80
2021/07/10 10:06:29;;;;;;;;;3.00;3.00;;;;;23.20;100.00;101347.53;5057821;28;45448;-79
2021/07/10 10:08:56;;;;;;;;;4.75;4.00;;;;;23.21;100.00;101359.06;5058637;28;45450;-79
2021/07/10 10:11:21;;;;;;;;;4.00;4.00;;;;;23.19;100.00;101355.63;5040216;28;48033;-79
2021/07/10 10:13:47;;;;;;;;;4.00;3.75;;;;;23.10;100.00;101356.16;5058120;28;45449;-77
2021/07/10 10:16:16;;;;;;;;;2.50;2.50;;;;;23.00;100.00;101350.47;5040021;28;45804;-78
2021/07/10 10:18:42;;;;;;;;;3.00;3.00;;;;;22.89;100.00;101324.47;5057863;28;45388;-78
2021/07/10 10:21:08;;;;;;;;;5.00;4.00;;;;;23.01;100.00;101335.34;5058013;28;45518;-77
2021/07/10 10:23:35;;;;;;;;;3.75;3.00;;;;;23.01;100.00;101346.88;5058371;28;45499;-78
2021/07/10 10:26:01;;;;;;;;;4.25;3.00;;;;;23.05;100.00;101352.88;5057768;28;45388;-77
2021/07/10 10:28:27;;;;;;;;;2.00;2.00;;;;;23.02;100.00;101347.72;5056398;28;45591;-77
2021/07/10 10:30:56;;;;;;;;;4.00;3.00;;;;;22.91;100.00;101351.88;5056806;28;47420;-79
2021/07/10 10:33:23;;;;;;;;;3.50;3.50;;;;;22.85;100.00;101348.66;5039403;28;45562;-77
2021/07/10 10:35:53;;;;;;;;;3.00;3.00;;;;;22.80;100.00;101348.91;5048614;28;45415;-80
2021/07/10 10:38:20;;;;;;;;;3.00;3.00;;;;;22.73;100.00;101338.69;5032854;28;45485;-79
2021/07/10 10:40:48;;;;;;;;;5.25;4.75;;;;;22.75;100.00;101342.97;5054795;28;45683;-78
2021/07/10 10:43:16;;;;;;;;;3.75;3.00;;;;;22.78;100.00;101342.78;5057173;28;45600;-77
2021/07/10 10:45:43;;;;;;;;;3.25;3.00;;;;;22.78;100.00;101329.47;5044335;28;45357;-77
2021/07/10 10:48:09;;;;;;;;;2.00;2.00;;;;;22.94;100.00;101349.97;5056973;28;45438;-78
2021/07/10 10:50:41;;;;;;;;;2.25;2.00;;;;;22.88;100.00;101325.41;5048987;28;46293;-78
2021/07/10 10:53:22;;;;;;;;;3.25;2.75;;;;;23.06;100.00;101341.28;5033467;28;45819;-78
2021/07/10 10:55:48;;;;;;;;;2.50;2.00;;;;;23.18;100.00;101338.78;5042817;28;45375;-77
2021/07/10 10:58:15;;;;;;;;;5.25;5.25;;;;;23.37;100.00;101349.25;5036938;28;45544;-78
2021/07/10 11:00:42;;;;;;;;;3.00;3.00;;;;;23.50;100.00;101341.38;5048511;28;45440;-79
2021/07/10 11:03:11;;;;;;;;;20.50;18.00;;;;;23.72;100.00;101341.00;5039906;28;45746;-79
2021/07/10 11:05:51;;;;;;;;;4.25;4.00;;;;;24.02;100.00;101339.19;5055754;28;45329;-78
2021/07/10 11:08:19;;;;;;;;;3.00;3.00;;;;;24.38;100.00;101335.22;5045458;28;45314;-79